Brevik Bridge — VRHY7 — position and weather

sailwx.info

Track history (hours):
 
Tides and Currents Weather Stations Pressure Air Temp Water Temp Dewpoint Dewpoint Depression Visibility Wind Speed Wind Dir Waves Ship Positions

Brevik Bridge

Last reported at 2015-May-29 17:25 UTC. Time now 2015-May-29 18:29 UTC.
Position S 33°50' E 018°25'.

Length 268 m; draft 10.5 m.

Type: Cargo ship. MMSI: 477866200.

Date/timePositionNaut miles runAvg speedWind from/ knotsBaromVisibWave heightAir tempDewpointWater temp
2015-May-29 17:25S 33°50' E 018°25'0 0.0
2015-May-29 08:12S 33°50' E 018°25'0 0.0
2015-May-29 07:24S 33°50' E 018°25'4 4.7
2015-May-29 06:33S 33°52' E 018°21'160 9.7
2015-May-28 14:04S 34°52' E 021°21'811.9
2015-May-28 13:22S 34°51' E 021°31'7011.7
2015-May-28 07:25S 34°42' E 022°55'1312.2
2015-May-28 06:23S 34°40' E 023°11'31212.1
2015-May-27 04:32S 32°30' E 028°51'16412.3
2015-May-26 15:14S 30°22' E 030°51'911.9
2015-May-26 14:30S 30°14' E 030°56'1212.4
2015-May-26 13:33S 30°03' E 031°02'1211.7
2015-May-26 12:33S 29°52' E 031°06'4 3.7
2015-May-26 11:28S 29°53' E 031°02'0 0.0
2015-May-26 10:10S 29°53' E 031°02'0 0.0
2015-May-26 09:10S 29°53' E 031°02'0 0.0
2015-May-26 08:28S 29°53' E 031°02'0 0.0
2015-May-26 07:28S 29°53' E 031°02'0 0.0
2015-May-26 06:28S 29°53' E 031°02'0 0.0
2015-May-26 05:28S 29°53' E 031°02'0 0.0
2015-May-26 04:28S 29°53' E 031°02'0 0.0
2015-May-26 03:16S 29°53' E 031°02'0 0.0
2015-May-26 02:28S 29°53' E 031°02'0 0.0
2015-May-26 01:28S 29°53' E 031°02'0 0.0
2015-May-26 00:22S 29°53' E 031°02'0 0.0
2015-May-25 23:28S 29°53' E 031°02'0 0.0
2015-May-25 22:28S 29°53' E 031°02'0 0.0
2015-May-25 21:28S 29°53' E 031°02'0 0.0
2015-May-25 20:28S 29°53' E 031°02'0 0.0
2015-May-25 19:10S 29°53' E 031°02'0 0.0
2015-May-25 18:28S 29°53' E 031°02'0 0.0
2015-May-25 17:22S 29°53' E 031°02'0 0.0
2015-May-25 16:22S 29°53' E 031°02'0 0.0
2015-May-25 15:04S 29°53' E 031°02'0 0.0
2015-May-25 14:22S 29°53' E 031°02'0 0.0
2015-May-25 13:28S 29°53' E 031°02'0 0.0
2015-May-25 12:28S 29°53' E 031°01'0 0.0
2015-May-25 11:28S 29°53' E 031°02'0 0.0
2015-May-25 10:28S 29°53' E 031°02'0 0.0
2015-May-25 09:22S 29°53' E 031°02'0 0.0
2015-May-25 08:28S 29°53' E 031°02'0 0.0
2015-May-25 07:22S 29°53' E 031°01'0 0.0
2015-May-25 06:28S 29°53' E 031°02'0 0.0
2015-May-25 05:28S 29°53' E 031°02'0 0.0
2015-May-25 04:28S 29°53' E 031°02'0 0.0
2015-May-25 03:28S 29°53' E 031°02'0 0.0
2015-May-25 02:22S 29°53' E 031°02'0 0.0
2015-May-25 01:28S 29°53' E 031°02'0 0.0
2015-May-25 00:28S 29°53' E 031°02'0 0.0
2015-May-24 23:10S 29°53' E 031°02'0 0.0
2015-May-24 22:28S 29°53' E 031°02'0 0.0
2015-May-24 21:28S 29°53' E 031°02'0 0.0
2015-May-24 20:28S 29°53' E 031°02'0 0.0
2015-May-24 19:22S 29°53' E 031°01'0 0.0
2015-May-24 18:28S 29°53' E 031°02'0 0.0
2015-May-24 17:28S 29°53' E 031°02'0 0.0
2015-May-24 16:28S 29°53' E 031°02'0 0.0
2015-May-24 15:04S 29°53' E 031°02'0 0.0
2015-May-24 14:28S 29°53' E 031°02'0 0.0
2015-May-24 13:22S 29°53' E 031°02'0 0.0
2015-May-24 12:28S 29°53' E 031°02'0 0.0
2015-May-24 11:28S 29°53' E 031°02'0 0.0
2015-May-24 10:28S 29°53' E 031°02'0 0.0
2015-May-24 09:28S 29°53' E 031°02'0 0.0
2015-May-24 08:28S 29°53' E 031°02'0 0.0
2015-May-24 07:28S 29°53' E 031°02'0 0.0
2015-May-24 06:28S 29°53' E 031°02'0 0.5
2015-May-24 05:33S 29°53' E 031°02'7 6.9
2015-May-24 04:33S 29°48' E 031°07'10 9.6
2015-May-24 03:33S 29°45' E 031°18'0 0.4
2015-May-24 02:33S 29°45' E 031°18'1 1.4
2015-May-24 01:33S 29°46' E 031°20'10 9.9
2015-May-24 00:33S 29°43' E 031°31'1111.3
2015-May-23 23:33S 29°39' E 031°43'1211.6
2015-May-23 22:33S 29°38' E 031°56'1212.4
2015-May-23 21:33S 29°36' E 032°10'1212.2
2015-May-23 20:33S 29°33' E 032°24'1312.3
2015-May-23 19:32S 29°30' E 032°38'  
Track history (hours):
 
Tides and Currents Weather Stations Pressure Air Temp Water Temp Dewpoint Dewpoint Depression Visibility Wind Speed Wind Dir Waves Ship Positions

Brevik Bridge

Last reported at 2015-May-29 17:25 UTC. Time now 2015-May-29 18:29 UTC.
Position S 33°50' E 018°25'.

Length 268 m; draft 10.5 m.

Type: Cargo ship. MMSI: 477866200.

Date/timePositionNaut miles runAvg speedWind from/ knotsBaromVisibWave heightAir tempDewpointWater temp
2015-May-29 17:25S 33°50' E 018°25'0 0.0
2015-May-29 08:12S 33°50' E 018°25'0 0.0
2015-May-29 07:24S 33°50' E 018°25'4 4.7
2015-May-29 06:33S 33°52' E 018°21'160 9.7
2015-May-28 14:04S 34°52' E 021°21'811.9
2015-May-28 13:22S 34°51' E 021°31'7011.7
2015-May-28 07:25S 34°42' E 022°55'1312.2
2015-May-28 06:23S 34°40' E 023°11'31212.1
2015-May-27 04:32S 32°30' E 028°51'16412.3
2015-May-26 15:14S 30°22' E 030°51'911.9
2015-May-26 14:30S 30°14' E 030°56'1212.4
2015-May-26 13:33S 30°03' E 031°02'1211.7
2015-May-26 12:33S 29°52' E 031°06'4 3.7
2015-May-26 11:28S 29°53' E 031°02'0 0.0
2015-May-26 10:10S 29°53' E 031°02'0 0.0
2015-May-26 09:10S 29°53' E 031°02'0 0.0
2015-May-26 08:28S 29°53' E 031°02'0 0.0
2015-May-26 07:28S 29°53' E 031°02'0 0.0
2015-May-26 06:28S 29°53' E 031°02'0 0.0
2015-May-26 05:28S 29°53' E 031°02'0 0.0
2015-May-26 04:28S 29°53' E 031°02'0 0.0
2015-May-26 03:16S 29°53' E 031°02'0 0.0
2015-May-26 02:28S 29°53' E 031°02'0 0.0
2015-May-26 01:28S 29°53' E 031°02'0 0.0
2015-May-26 00:22S 29°53' E 031°02'0 0.0
2015-May-25 23:28S 29°53' E 031°02'0 0.0
2015-May-25 22:28S 29°53' E 031°02'0 0.0
2015-May-25 21:28S 29°53' E 031°02'0 0.0
2015-May-25 20:28S 29°53' E 031°02'0 0.0
2015-May-25 19:10S 29°53' E 031°02'0 0.0
2015-May-25 18:28S 29°53' E 031°02'0 0.0
2015-May-25 17:22S 29°53' E 031°02'0 0.0
2015-May-25 16:22S 29°53' E 031°02'0 0.0
2015-May-25 15:04S 29°53' E 031°02'0 0.0
2015-May-25 14:22S 29°53' E 031°02'0 0.0
2015-May-25 13:28S 29°53' E 031°02'0 0.0
2015-May-25 12:28S 29°53' E 031°01'0 0.0
2015-May-25 11:28S 29°53' E 031°02'0 0.0
2015-May-25 10:28S 29°53' E 031°02'0 0.0
2015-May-25 09:22S 29°53' E 031°02'0 0.0
2015-May-25 08:28S 29°53' E 031°02'0 0.0
2015-May-25 07:22S 29°53' E 031°01'0 0.0
2015-May-25 06:28S 29°53' E 031°02'0 0.0
2015-May-25 05:28S 29°53' E 031°02'0 0.0
2015-May-25 04:28S 29°53' E 031°02'0 0.0
2015-May-25 03:28S 29°53' E 031°02'0 0.0
2015-May-25 02:22S 29°53' E 031°02'0 0.0
2015-May-25 01:28S 29°53' E 031°02'0 0.0
2015-May-25 00:28S 29°53' E 031°02'0 0.0
2015-May-24 23:10S 29°53' E 031°02'0 0.0
2015-May-24 22:28S 29°53' E 031°02'0 0.0
2015-May-24 21:28S 29°53' E 031°02'0 0.0
2015-May-24 20:28S 29°53' E 031°02'0 0.0
2015-May-24 19:22S 29°53' E 031°01'0 0.0
2015-May-24 18:28S 29°53' E 031°02'0 0.0
2015-May-24 17:28S 29°53' E 031°02'0 0.0
2015-May-24 16:28S 29°53' E 031°02'0 0.0
2015-May-24 15:04S 29°53' E 031°02'0 0.0
2015-May-24 14:28S 29°53' E 031°02'0 0.0
2015-May-24 13:22S 29°53' E 031°02'0 0.0
2015-May-24 12:28S 29°53' E 031°02'0 0.0
2015-May-24 11:28S 29°53' E 031°02'0 0.0
2015-May-24 10:28S 29°53' E 031°02'0 0.0
2015-May-24 09:28S 29°53' E 031°02'0 0.0
2015-May-24 08:28S 29°53' E 031°02'0 0.0
2015-May-24 07:28S 29°53' E 031°02'0 0.0
2015-May-24 06:28S 29°53' E 031°02'0 0.5
2015-May-24 05:33S 29°53' E 031°02'7 6.9
2015-May-24 04:33S 29°48' E 031°07'10 9.6
2015-May-24 03:33S 29°45' E 031°18'0 0.4
2015-May-24 02:33S 29°45' E 031°18'1 1.4
2015-May-24 01:33S 29°46' E 031°20'10 9.9
2015-May-24 00:33S 29°43' E 031°31'1111.3
2015-May-23 23:33S 29°39' E 031°43'1211.6
2015-May-23 22:33S 29°38' E 031°56'1212.4
2015-May-23 21:33S 29°36' E 032°10'1212.2
2015-May-23 20:33S 29°33' E 032°24'1312.3
2015-May-23 19:32S 29°30' E 032°38'  

Dump ship's entire track history